Latest Weather Observations for Little Bay

IDN60801

Issued at 7:03 am EST Thursday 28 July 2016 (issued every 30 minutes, with the page automatically refreshed every 10 minutes)

About weather observations | Map of weather stations | Latest weather observations for NSW | Other Formats
Station Details ID: 066051 Name: LITTLE BAY (THE COAST GOLF CLUB) Lat: -33.98 Lon: 151.25 Height: 22.0 m
Data from the previous 72 hours. | See also: Recent months for locations in New South Wales
Date/Time
EST
Temp
°C
App
Temp
°C
Dew
Point
°C
Rel
Hum
%
Delta-T
°C
Wind Press
QNH
hPa
Press
MSL
hPa
Rain since
9am
mm
Dir  Spd
km/h
Gust
km/h
Spd
kts
Gust
kts
28/07:00am - - - - - WNW 13 17 7 9 - - -
28/06:30am - - - - - WNW 11 17 6 9 - - -
28/06:00am - - - - - WNW 15 20 8 11 - - -
28/05:30am - - - - - W 13 17 7 9 - - -
28/05:00am - - - - - W 15 22 8 12 - - -
28/04:30am - - - - - W 15 20 8 11 - - -
28/04:00am - - - - - WNW 13 20 7 11 - - -
28/03:30am - - - - - W 15 24 8 13 - - -
28/03:00am - - - - - W 11 17 6 9 - - -
28/02:30am - - - - - WNW 11 17 6 9 - - -
28/02:00am - - - - - W 17 24 9 13 - - -
28/01:30am - - - - - W 19 28 10 15 - - -
28/01:00am - - - - - W 19 32 10 17 - - -
28/12:30am - - - - - W 17 28 9 15 - - -
28/12:00am - - - - - W 17 26 9 14 - - -
 
Date/Time
EST
Temp
°C
App
Temp
°C
Dew
Point
°C
Rel
Hum
%
Delta-T
°C
Wind Press
QNH
hPa
Press
MSL
hPa
Rain since
9am
mm
Dir  Spd
km/h
Gust
km/h
Spd
kts
Gust
kts
27/11:30pm - - - - - W 19 28 10 15 - - -
27/11:00pm - - - - - W 19 32 10 17 - - -
27/10:30pm - - - - - W 20 32 11 17 - - -
27/10:00pm - - - - - W 24 33 13 18 - - -
27/09:30pm - - - - - W 19 30 10 16 - - -
27/09:00pm - - - - - W 19 32 10 17 - - -
27/08:30pm - - - - - WNW 17 30 9 16 - - -
27/08:00pm - - - - - W 19 30 10 16 - - -
27/07:30pm - - - - - W 20 33 11 18 - - -
27/07:00pm - - - - - W 19 30 10 16 - - -
27/06:30pm - - - - - W 19 28 10 15 - - -
27/06:00pm - - - - - WSW 15 30 8 16 - - -
27/05:30pm - - - - - WSW 19 30 10 16 - - -
27/05:00pm - - - - - W 20 35 11 19 - - -
27/04:30pm - - - - - W 20 35 11 19 - - -
27/04:00pm - - - - - W 22 33 12 18 - - -
27/03:30pm - - - - - WSW 26 41 14 22 - - -
27/03:00pm - - - - - W 24 35 13 19 - - -
27/02:30pm - - - - - W 26 41 14 22 - - -
27/02:00pm - - - - - WSW 20 37 11 20 - - -
27/01:31pm - - - - - W 28 48 15 26 - - -
27/01:30pm - - - - - W 26 48 14 26 - - -
27/01:00pm - - - - - W 20 37 11 20 - - -
27/12:30pm - - - - - W 17 26 9 14 - - -
27/12:00pm - - - - - W 26 37 14 20 - - -
27/11:30am - - - - - W 20 32 11 17 - - -
27/11:00am - - - - - W 24 39 13 21 - - -
27/10:30am - - - - - NW 19 35 10 19 - - -
27/10:00am - - - - - NW 13 24 7 13 - - -
27/09:30am - - - - - NNW 9 13 5 7 - - -
27/09:00am - - - - - NW 4 11 2 6 - - -
27/08:30am - - - - - NNW 15 20 8 11 - - -
27/08:00am - - - - - NW 13 24 7 13 - - -
27/07:30am - - - - - NW 13 24 7 13 - - -
27/07:00am - - - - - NW 13 24 7 13 - - -
27/06:30am - - - - - NW 15 28 8 15 - - -
27/06:00am - - - - - NW 11 22 6 12 - - -
27/05:30am - - - - - NNW 11 22 6 12 - - -
27/05:00am - - - - - WSW 4 9 2 5 - - -
27/04:30am - - - - - NNW 11 19 6 10 - - -
27/04:00am - - - - - NNW 13 19 7 10 - - -
27/03:30am - - - - - NNW 13 20 7 11 - - -
27/03:00am - - - - - NNW 9 15 5 8 - - -
27/02:30am - - - - - NNW 7 11 4 6 - - -
27/02:00am - - - - - NNW 7 13 4 7 - - -
27/01:30am - - - - - NW 7 11 4 6 - - -
27/01:00am - - - - - NNW 7 11 4 6 - - -
27/12:30am - - - - - NNW 11 15 6 8 - - -
27/12:00am - - - - - NNW 9 13 5 7 - - -
 
Date/Time
EST
Temp
°C
App
Temp
°C
Dew
Point
°C
Rel
Hum
%
Delta-T
°C
Wind Press
QNH
hPa
Press
MSL
hPa
Rain since
9am
mm
Dir  Spd
km/h
Gust
km/h
Spd
kts
Gust
kts
26/11:30pm - - - - - NNW 7 9 4 5 - - -
26/11:00pm - - - - - N 4 4 2 2 - - -
26/10:30pm - - - - - NNW 4 7 2 4 - - -
26/10:00pm - - - - - CALM 0 0 0 0 - - -
26/09:30pm - - - - - W 2 6 1 3 - - -
26/09:00pm - - - - - SW 7 11 4 6 - - -
26/08:30pm - - - - - WSW 9 15 5 8 - - -
26/08:00pm - - - - - WSW 13 20 7 11 - - -
26/07:30pm - - - - - W 13 24 7 13 - - -
26/07:00pm - - - - - W 9 22 5 12 - - -
26/06:30pm - - - - - W 11 24 6 13 - - -
26/06:00pm - - - - - W 20 33 11 18 - - -
26/05:30pm - - - - - W 11 17 6 9 - - -
26/05:00pm - - - - - WNW 7 15 4 8 - - -
26/04:30pm - - - - - NW 2 7 1 4 - - -
26/04:00pm - - - - - ENE 11 17 6 9 - - -
26/03:30pm - - - - - ENE 13 19 7 10 - - -
26/03:00pm - - - - - NE 11 15 6 8 - - -
26/02:30pm - - - - - NE 13 17 7 9 - - -
26/02:00pm - - - - - NE 11 19 6 10 - - -
26/01:30pm - - - - - ENE 11 15 6 8 - - -
26/01:00pm - - - - - ENE 9 15 5 8 - - -
26/12:30pm - - - - - E 7 11 4 6 - - -
26/12:00pm - - - - - ESE 9 11 5 6 - - -
26/11:30am - - - - - ENE 7 9 4 5 - - -
26/11:00am - - - - - E 6 9 3 5 - - -
26/10:30am - - - - - ENE 9 11 5 6 - - -
26/10:00am - - - - - ENE 4 7 2 4 - - -
26/09:30am - - - - - NE 7 9 4 5 - - -
26/09:00am - - - - - NW 6 9 3 5 - - -
26/08:30am - - - - - NW 7 13 4 7 - - -
26/08:00am - - - - - NNW 7 11 4 6 - - -
26/07:30am - - - - - NNW 7 11 4 6 - - -
26/07:00am - - - - - NNW 7 15 4 8 - - -
26/06:30am - - - - - N 11 17 6 9 - - -
26/06:00am - - - - - NNW 9 13 5 7 - - -
26/05:30am - - - - - NNW 9 13 5 7 - - -
26/05:00am - - - - - NNW 9 13 5 7 - - -
26/04:30am - - - - - NNW 11 17 6 9 - - -
26/04:00am - - - - - NNW 9 13 5 7 - - -
26/03:30am - - - - - NNW 9 11 5 6 - - -
26/03:00am - - - - - NNW 9 13 5 7 - - -
26/02:30am - - - - - N 7 11 4 6 - - -
26/02:00am - - - - - N 9 11 5 6 - - -
26/01:30am - - - - - N 7 9 4 5 - - -
26/01:00am - - - - - N 7 11 4 6 - - -
26/12:30am - - - - - N 6 9 3 5 - - -
26/12:00am - - - - - NW 11 17 6 9 - - -
 
Date/Time
EST
Temp
°C
App
Temp
°C
Dew
Point
°C
Rel
Hum
%
Delta-T
°C
Wind Press
QNH
hPa
Press
MSL
hPa
Rain since
9am
mm
Dir  Spd
km/h
Gust
km/h
Spd
kts
Gust
kts
25/11:30pm - - - - - NW 9 17 5 9 - - -
25/11:00pm - - - - - WNW 7 13 4 7 - - -
25/10:30pm - - - - - NW 7 15 4 8 - - -
25/10:00pm - - - - - NNW 11 15 6 8 - - -
25/09:30pm - - - - - NNW 13 20 7 11 - - -
25/09:00pm - - - - - NNW 13 22 7 12 - - -
25/08:30pm - - - - - NNW 13 20 7 11 - - -
25/08:00pm - - - - - NW 15 24 8 13 - - -
25/07:30pm - - - - - WNW 17 30 9 16 - - -
25/07:00pm - - - - - WNW 17 30 9 16 - - -
25/06:30pm - - - - - WNW 20 33 11 18 - - -
25/06:00pm - - - - - WNW 13 28 7 15 - - -
25/05:30pm - - - - - W 13 24 7 13 - - -
25/05:00pm - - - - - W 19 33 10 18 - - -
25/04:30pm - - - - - W 20 33 11 18 - - -
25/04:00pm - - - - - WNW 20 33 11 18 - - -
25/03:30pm - - - - - WNW 15 24 8 13 - - -
25/03:00pm - - - - - WNW 19 32 10 17 - - -
25/02:30pm - - - - - W 17 28 9 15 - - -
25/02:00pm - - - - - WSW 20 37 11 20 - - -
25/01:30pm - - - - - W 19 32 10 17 - - -
25/01:00pm - - - - - WSW 17 28 9 15 - - -
25/12:30pm - - - - - WSW 19 26 10 14 - - -
25/12:00pm - - - - - WSW 22 35 12 19 - - -
25/11:30am - - - - - W 19 30 10 16 - - -
25/11:00am - - - - - W 20 35 11 19 - - -
25/10:30am - - - - - W 22 41 12 22 - - -
25/10:00am - - - - - NW 19 35 10 19 - - -
25/09:30am - - - - - NW 11 28 6 15 - - -
25/09:00am - - - - - NW 13 28 7 15 - - -
25/08:30am - - - - - NNW 11 17 6 9 - - -
25/08:00am - - - - - N 6 9 3 5 - - -
25/07:30am - - - - - N 4 7 2 4 - - -

Other Formats:

Comma delimited format used in spreadsheet applications
http://www.bom.gov.au/fwo/IDN60801/IDN60801.94780.axf

JavaScript Object Notation format (JSON) in row-major order
http://www.bom.gov.au/fwo/IDN60801/IDN60801.94780.json